createdAt,value
2017-07-17T00:00:54.250Z,0
2017-07-17T00:01:54.857Z,0
2017-07-17T00:02:54.849Z,0
2017-07-17T00:03:54.533Z,0
2017-07-17T00:04:54.522Z,0
2017-07-17T00:05:54.188Z,0
2017-07-17T00:06:54.799Z,0
2017-07-17T00:07:54.792Z,0
2017-07-17T00:08:54.771Z,0
2017-07-17T00:09:54.454Z,0
2017-07-17T00:10:54.437Z,0
2017-07-17T00:11:54.731Z,0
2017-07-17T00:12:53.789Z,0
2017-07-17T00:13:54.096Z,0
2017-07-17T00:14:54.073Z,0
2017-07-17T00:15:54.062Z,0
2017-07-17T00:16:54.061Z,0
2017-07-17T00:17:54.662Z,0
2017-07-17T00:18:54.652Z,0
2017-07-17T00:19:54.645Z,0
2017-07-17T00:20:54.628Z,0
2017-07-17T00:21:54.309Z,0
2017-07-17T00:22:53.976Z,0
2017-07-17T00:23:53.962Z,0
2017-07-17T00:24:54.566Z,0
2017-07-17T00:25:54.564Z,0
2017-07-17T00:26:54.233Z,0
2017-07-17T00:27:54.231Z,0
2017-07-17T00:28:54.530Z,0
2017-07-17T00:29:54.499Z,0
2017-07-17T00:30:54.500Z,0
2017-07-17T00:31:54.486Z,0
2017-07-17T00:32:54.467Z,0
2017-07-17T00:33:54.466Z,0
2017-07-17T00:34:54.439Z,0
2017-07-17T00:35:54.126Z,0
2017-07-17T00:36:54.435Z,0
2017-07-17T00:37:53.793Z,0
2017-07-17T00:38:54.098Z,0
2017-07-17T00:39:54.078Z,0
2017-07-17T00:40:54.061Z,0
2017-07-17T00:41:54.055Z,0
2017-07-17T00:42:54.359Z,0
2017-07-17T00:43:54.327Z,0
2017-07-17T00:44:54.319Z,0
2017-07-17T00:45:54.310Z,0
2017-07-17T00:46:54.305Z,0
2017-07-17T00:47:54.297Z,0
2017-07-17T00:48:54.279Z,0
2017-07-17T00:49:54.261Z,0
2017-07-17T00:50:53.626Z,0
2017-07-17T00:51:54.242Z,0
2017-07-17T00:52:54.219Z,0
2017-07-17T00:53:54.213Z,0
2017-07-17T00:54:54.209Z,0
2017-07-17T00:55:54.197Z,0
2017-07-17T00:56:53.559Z,0
2017-07-17T00:57:53.859Z,0
2017-07-17T00:58:54.155Z,0
2017-07-17T00:59:54.146Z,0
2017-07-17T01:00:53.829Z,0
2017-07-17T01:01:53.848Z,0
2017-07-17T01:02:54.122Z,0
2017-07-17T01:03:54.120Z,0
2017-07-17T01:04:54.098Z,0
2017-07-17T01:05:54.075Z,0
2017-07-17T01:06:53.757Z,0
2017-07-17T01:07:54.066Z,0
2017-07-17T01:08:54.068Z,0
2017-07-17T01:09:54.047Z,0
2017-07-17T01:10:54.040Z,0
2017-07-17T01:11:54.010Z,0
2017-07-17T01:12:53.700Z,0
2017-07-17T01:13:53.693Z,0
2017-07-17T01:14:53.980Z,0
2017-07-17T01:15:53.659Z,0
2017-07-17T01:16:53.345Z,0
2017-07-17T01:17:53.979Z,0
2017-07-17T01:18:53.937Z,0
2017-07-17T01:19:53.615Z,0
2017-07-17T01:20:53.910Z,0
2017-07-17T01:21:52.970Z,0
2017-07-17T01:22:53.279Z,0
2017-07-17T01:23:53.263Z,0
2017-07-17T01:24:53.559Z,0
2017-07-17T01:25:53.556Z,0
2017-07-17T01:26:53.541Z,0
2017-07-17T01:27:53.848Z,0
2017-07-17T01:28:53.825Z,0
2017-07-17T01:29:53.853Z,0
2017-07-17T01:30:53.809Z,0
2017-07-17T01:31:53.784Z,0
2017-07-17T01:32:53.790Z,0
2017-07-17T01:33:53.779Z,0
2017-07-17T01:34:53.803Z,0
2017-07-17T01:35:53.439Z,0
2017-07-17T01:36:53.746Z,0
2017-07-17T01:37:53.722Z,0
2017-07-17T01:38:53.400Z,0
2017-07-17T01:39:53.381Z,0
2017-07-17T01:40:53.687Z,0
2017-07-17T01:41:53.367Z,0
2017-07-17T01:42:53.351Z,0
2017-07-17T01:43:53.645Z,0
2017-07-17T01:44:53.030Z,0
2017-07-17T01:45:53.317Z,0
2017-07-17T01:46:53.313Z,0
2017-07-17T01:47:53.604Z,0
2017-07-17T01:48:53.275Z,0
2017-07-17T01:49:53.596Z,0
2017-07-17T01:50:53.573Z,0
2017-07-17T01:51:53.552Z,0
2017-07-17T01:52:53.539Z,0
2017-07-17T01:53:53.538Z,0
2017-07-17T01:54:53.526Z,0
2017-07-17T01:55:53.503Z,0
2017-07-17T01:56:53.185Z,0
2017-07-17T01:57:53.495Z,0
2017-07-17T01:58:53.478Z,0
2017-07-17T02:00:07.113Z,0
2017-07-17T02:00:53.137Z,0
2017-07-17T02:01:53.447Z,0
2017-07-17T02:02:53.432Z,0
2017-07-17T02:03:52.800Z,0
2017-07-17T02:04:53.416Z,0
2017-07-17T02:05:53.394Z,0
2017-07-17T02:06:53.383Z,0
2017-07-17T02:07:53.364Z,0
2017-07-17T02:08:53.357Z,0
2017-07-17T02:09:53.348Z,0
2017-07-17T02:10:52.404Z,0
2017-07-17T02:11:53.025Z,0
2017-07-17T02:12:53.007Z,0
2017-07-17T02:13:52.998Z,0
2017-07-17T02:14:52.974Z,0
2017-07-17T02:15:53.286Z,0
2017-07-17T02:16:53.269Z,0
2017-07-17T02:17:52.954Z,0
2017-07-17T02:18:53.265Z,0
2017-07-17T02:19:53.242Z,0
2017-07-17T02:20:52.913Z,0
2017-07-17T02:21:52.900Z,0
2017-07-17T02:22:52.275Z,0
2017-07-17T02:23:52.580Z,0
2017-07-17T02:24:52.875Z,0
2017-07-17T02:25:53.182Z,0
2017-07-17T02:26:53.200Z,0
2017-07-17T02:27:53.145Z,0
2017-07-17T02:28:53.130Z,0
2017-07-17T02:29:53.125Z,0
2017-07-17T02:30:52.804Z,0
2017-07-17T02:31:53.101Z,0
2017-07-17T02:32:53.098Z,0
2017-07-17T02:33:53.087Z,0
2017-07-17T02:34:53.073Z,0
2017-07-17T02:36:06.384Z,0
2017-07-17T02:37:06.118Z,0
2017-07-17T02:37:52.727Z,0
2017-07-17T02:38:52.718Z,0
2017-07-17T02:39:53.020Z,0
2017-07-17T02:40:52.690Z,0
2017-07-17T02:41:52.685Z,0
2017-07-17T02:42:52.976Z,0
2017-07-17T02:43:52.352Z,0
2017-07-17T02:44:52.646Z,0
2017-07-17T02:45:52.331Z,0
2017-07-17T02:46:52.634Z,0
2017-07-17T02:47:52.611Z,0
2017-07-17T02:48:52.604Z,0
2017-07-17T02:49:52.906Z,0
2017-07-17T02:50:52.881Z,0
2017-07-17T02:51:52.878Z,0
2017-07-17T02:52:52.885Z,0
2017-07-17T02:53:52.563Z,0
2017-07-17T02:54:52.849Z,0
2017-07-17T02:55:52.834Z,4
2017-07-17T02:56:52.815Z,4
2017-07-17T02:57:52.812Z,4
2017-07-17T02:58:52.491Z,0
2017-07-17T02:59:52.797Z,4
2017-07-17T03:00:52.151Z,4
2017-07-17T03:01:52.469Z,8
2017-07-17T03:02:52.440Z,4
2017-07-17T03:03:52.740Z,8
2017-07-17T03:04:52.733Z,8
2017-07-17T03:05:52.716Z,8
2017-07-17T03:06:52.919Z,8
2017-07-17T03:07:52.693Z,12
2017-07-17T03:08:52.061Z,16
2017-07-17T03:09:52.054Z,16
2017-07-17T03:10:51.726Z,20
2017-07-17T03:11:52.847Z,24
2017-07-17T03:12:52.841Z,28
2017-07-17T03:13:52.628Z,32
2017-07-17T03:14:52.616Z,36
2017-07-17T03:15:52.605Z,44
2017-07-17T03:16:52.616Z,52
2017-07-17T03:17:52.791Z,60
2017-07-17T03:18:52.566Z,68
2017-07-17T03:19:52.243Z,80
2017-07-17T03:20:52.239Z,92
2017-07-17T03:21:52.549Z,104
2017-07-17T03:22:51.587Z,116
2017-07-17T03:23:52.208Z,136
2017-07-17T03:24:52.503Z,152
2017-07-17T03:25:52.190Z,172
2017-07-17T03:26:52.493Z,192
2017-07-17T03:27:52.466Z,216
2017-07-17T03:28:52.476Z,240
2017-07-17T03:29:52.443Z,268
2017-07-17T03:30:52.428Z,296
2017-07-17T03:31:52.435Z,328
2017-07-17T03:32:52.413Z,360
2017-07-17T03:33:52.418Z,396
2017-07-17T03:34:52.087Z,432
2017-07-17T03:35:52.377Z,476
2017-07-17T03:36:52.372Z,520
2017-07-17T03:37:52.363Z,564
2017-07-17T03:38:52.355Z,612
2017-07-17T03:39:52.332Z,660
2017-07-17T03:40:52.007Z,716
2017-07-17T03:41:52.317Z,764
2017-07-17T03:42:51.979Z,816
2017-07-17T03:43:52.279Z,872
2017-07-17T03:44:52.171Z,924
2017-07-17T03:45:51.958Z,972
2017-07-17T03:46:51.938Z,1028
2017-07-17T03:47:52.246Z,1084
2017-07-17T03:48:52.440Z,1136
2017-07-17T03:49:52.217Z,1188
2017-07-17T03:50:51.902Z,1240
2017-07-17T03:51:52.203Z,1292
2017-07-17T03:52:51.872Z,1344
2017-07-17T03:53:52.076Z,1396
2017-07-17T03:54:52.376Z,1448
2017-07-17T03:55:52.169Z,1500
2017-07-17T03:56:52.153Z,1552
2017-07-17T03:57:51.819Z,1604
2017-07-17T03:58:52.331Z,1644
2017-07-17T03:59:52.116Z,1692
2017-07-17T04:00:51.789Z,1736
2017-07-17T04:01:51.780Z,1780
2017-07-17T04:02:51.778Z,1824
2017-07-17T04:03:52.075Z,1876
2017-07-17T04:04:52.056Z,1920
2017-07-17T04:05:52.050Z,1960
2017-07-17T04:06:51.728Z,2012
2017-07-17T04:07:52.042Z,2060
2017-07-17T04:08:52.025Z,2104
2017-07-17T04:09:52.004Z,2144
2017-07-17T04:10:52.012Z,2188
2017-07-17T04:11:51.979Z,2228
2017-07-17T04:12:51.677Z,2268
2017-07-17T04:13:51.978Z,2304
2017-07-17T04:14:51.958Z,2352
2017-07-17T04:15:51.642Z,2400
2017-07-17T04:16:51.941Z,2448
2017-07-17T04:17:51.611Z,2484
2017-07-17T04:18:51.606Z,2520
2017-07-17T04:19:51.598Z,2572
2017-07-17T04:20:51.936Z,2628
2017-07-17T04:21:51.886Z,2672
2017-07-17T04:22:51.245Z,2712
2017-07-17T04:23:51.559Z,2752
2017-07-17T04:24:51.861Z,2788
2017-07-17T04:25:51.546Z,2820
2017-07-17T04:26:52.029Z,2856
2017-07-17T04:27:51.826Z,2896
2017-07-17T04:28:51.502Z,2932
2017-07-17T04:29:51.818Z,2968
2017-07-17T04:30:51.798Z,3000
2017-07-17T04:31:51.790Z,3036
2017-07-17T04:32:51.769Z,3088
2017-07-17T04:33:51.758Z,3152
2017-07-17T04:34:51.758Z,3216
2017-07-17T04:35:51.432Z,3264
2017-07-17T04:36:51.738Z,3312
2017-07-17T04:37:51.716Z,3392
2017-07-17T04:38:51.714Z,3464
2017-07-17T04:39:51.396Z,3488
2017-07-17T04:40:51.378Z,3504
2017-07-17T04:41:51.670Z,3528
2017-07-17T04:42:51.676Z,3564
2017-07-17T04:43:51.660Z,4120
2017-07-17T04:44:51.654Z,7488
2017-07-17T04:45:51.332Z,14928
2017-07-17T04:46:51.630Z,17696
2017-07-17T04:47:51.631Z,17792
2017-07-17T04:48:51.310Z,16256
2017-07-17T04:49:51.603Z,17408
2017-07-17T04:50:51.592Z,18080
2017-07-17T04:51:51.579Z,17920
2017-07-17T04:52:51.579Z,17920
2017-07-17T04:53:51.557Z,18048
2017-07-17T04:54:51.568Z,18016
2017-07-17T04:55:51.556Z,16928
2017-07-17T04:56:51.530Z,13316
2017-07-17T04:57:50.900Z,12820
2017-07-17T04:58:51.741Z,16512
2017-07-17T04:59:51.503Z,22272
2017-07-17T05:00:51.181Z,25504
2017-07-17T05:01:51.494Z,21888
2017-07-17T05:02:51.484Z,19168
2017-07-17T05:03:51.379Z,18048
2017-07-17T05:04:51.352Z,21344
2017-07-17T05:05:51.461Z,24480
2017-07-17T05:06:51.129Z,22432
2017-07-17T05:07:50.813Z,22432
2017-07-17T05:08:51.631Z,25472
2017-07-17T05:09:51.436Z,23168
2017-07-17T05:10:51.410Z,24160
2017-07-17T05:11:51.393Z,25088
2017-07-17T05:12:51.396Z,23296
2017-07-17T05:13:51.073Z,23424
2017-07-17T05:14:51.067Z,22592
2017-07-17T05:15:51.046Z,20032
2017-07-17T05:16:51.050Z,22816
2017-07-17T05:17:51.039Z,24448
2017-07-17T05:18:50.712Z,23968
2017-07-17T05:19:51.340Z,27360
2017-07-17T05:20:51.318Z,26336
2017-07-17T05:21:51.316Z,25184
2017-07-17T05:22:50.684Z,27040
2017-07-17T05:23:50.984Z,25504
2017-07-17T05:24:50.976Z,22432
2017-07-17T05:25:51.295Z,22720
2017-07-17T05:26:50.949Z,24544
2017-07-17T05:27:50.947Z,25888
2017-07-17T05:28:51.244Z,28992
2017-07-17T05:29:50.936Z,26976
2017-07-17T05:30:50.923Z,23520
2017-07-17T05:31:51.225Z,25888
2017-07-17T05:32:51.217Z,26240
2017-07-17T05:33:51.214Z,24928
2017-07-17T05:34:51.197Z,24960
2017-07-17T05:35:51.188Z,26848
2017-07-17T05:36:51.178Z,31328
2017-07-17T05:37:51.231Z,32928
2017-07-17T05:38:51.185Z,33792
2017-07-17T05:39:50.843Z,32192
2017-07-17T05:40:51.160Z,30720
2017-07-17T05:41:50.832Z,30944
2017-07-17T05:42:51.350Z,29888
2017-07-17T05:43:50.814Z,29664
2017-07-17T05:44:51.163Z,34592
2017-07-17T05:45:51.106Z,38752
2017-07-17T05:46:51.091Z,38208
2017-07-17T05:47:51.088Z,36160
2017-07-17T05:48:50.771Z,35808
2017-07-17T05:49:50.753Z,35424
2017-07-17T05:50:50.753Z,35232
2017-07-17T05:51:51.045Z,33440
2017-07-17T05:52:51.056Z,33344
2017-07-17T05:53:50.411Z,34624
2017-07-17T05:54:51.032Z,33888
2017-07-17T05:55:51.029Z,34912
2017-07-17T05:56:51.012Z,38784
2017-07-17T05:57:50.997Z,36160
2017-07-17T05:58:50.674Z,38304
2017-07-17T05:59:50.986Z,40352
2017-07-17T06:00:50.969Z,33472
2017-07-17T06:01:50.969Z,36352
2017-07-17T06:02:50.949Z,41440
2017-07-17T06:03:50.942Z,48416
2017-07-17T06:04:50.948Z,46560
2017-07-17T06:05:50.936Z,37856
2017-07-17T06:06:50.301Z,33344
2017-07-17T06:07:50.930Z,38336
2017-07-17T06:08:50.909Z,47008
2017-07-17T06:09:50.894Z,46176
2017-07-17T06:10:50.884Z,45280
2017-07-17T06:11:50.887Z,44032
2017-07-17T06:12:50.885Z,49280
2017-07-17T06:13:50.869Z,54304
2017-07-17T06:14:50.538Z,49056
2017-07-17T06:15:50.235Z,43200
2017-07-17T06:16:50.847Z,43584
2017-07-17T06:17:50.824Z,41504
2017-07-17T06:18:50.826Z,40608
2017-07-17T06:19:50.808Z,43552
2017-07-17T06:20:50.824Z,45312
2017-07-17T06:21:50.814Z,48288
2017-07-17T06:22:49.866Z,49824
2017-07-17T06:23:50.481Z,51360
2017-07-17T06:24:50.847Z,49856
2017-07-17T06:25:50.787Z,49088
2017-07-17T06:26:50.463Z,57280
2017-07-17T06:27:50.759Z,51456
2017-07-17T06:28:50.742Z,45088
2017-07-17T06:29:50.449Z,47680
2017-07-17T06:30:50.738Z,51872
2017-07-17T06:31:50.727Z,54976
2017-07-17T06:32:50.408Z,51680
2017-07-17T06:33:50.400Z,49568
2017-07-17T06:34:50.707Z,46720
2017-07-17T06:35:50.398Z,50688
2017-07-17T06:36:50.383Z,52832
2017-07-17T06:37:50.395Z,55776
2017-07-17T06:38:50.687Z,56096
2017-07-17T06:39:50.363Z,58752
2017-07-17T06:40:50.357Z,56736
2017-07-17T06:41:50.353Z,51648
2017-07-17T06:42:50.340Z,55264
2017-07-17T06:43:50.338Z,63712
2017-07-17T06:44:50.644Z,60864
2017-07-17T06:45:50.315Z,66880
2017-07-17T06:46:50.004Z,71168
2017-07-17T06:47:50.319Z,82592
2017-07-17T06:48:50.296Z,64800
2017-07-17T06:49:50.293Z,36768
2017-07-17T06:50:50.277Z,30912
2017-07-17T06:51:50.579Z,33376
2017-07-17T06:52:50.613Z,41696
2017-07-17T06:53:50.577Z,61344
2017-07-17T06:54:50.260Z,74368
2017-07-17T06:55:50.561Z,68192
2017-07-17T06:56:50.239Z,65024
2017-07-17T06:57:50.552Z,69376
2017-07-17T06:58:50.527Z,76448
2017-07-17T06:59:50.532Z,76608
2017-07-17T07:00:50.526Z,76000
2017-07-17T07:01:50.209Z,71392
2017-07-17T07:02:50.504Z,70464
2017-07-17T07:03:50.183Z,72384
2017-07-17T07:04:50.177Z,69664
2017-07-17T07:05:50.486Z,66944
2017-07-17T07:06:50.493Z,70336
2017-07-17T07:07:50.489Z,64000
2017-07-17T07:08:50.150Z,67264
2017-07-17T07:09:50.462Z,79968
2017-07-17T07:10:50.452Z,74624
2017-07-17T07:11:50.451Z,70080
2017-07-17T07:12:50.127Z,70944
2017-07-17T07:16:13.569Z,72544
2017-07-17T07:17:12.957Z,78656
2017-07-17T07:18:12.947Z,80832
2017-07-17T07:19:12.943Z,69120
2017-07-17T07:20:13.446Z,74304
2017-07-17T07:21:13.237Z,77120
2017-07-17T07:22:13.219Z,69984
2017-07-17T07:23:13.552Z,70720
2017-07-17T07:24:13.208Z,84096
2017-07-17T07:25:13.201Z,95008
2017-07-17T07:26:13.201Z,94880
2017-07-17T07:27:13.187Z,84032
2017-07-17T07:28:13.486Z,84512
2017-07-17T07:29:13.481Z,96864
2017-07-17T07:30:13.493Z,83456
2017-07-17T07:31:12.856Z,45856
2017-07-17T07:32:12.842Z,31200
2017-07-17T07:33:13.471Z,31136
2017-07-17T07:34:13.146Z,40288
2017-07-17T07:35:13.436Z,67488
2017-07-17T07:36:13.124Z,92576
2017-07-17T07:37:13.419Z,97632
2017-07-17T07:38:13.112Z,92288
2017-07-17T07:39:13.091Z,79008
2017-07-17T07:40:13.082Z,59808
2017-07-17T07:41:13.090Z,42432
2017-07-17T07:42:13.083Z,40064
2017-07-17T07:43:13.069Z,45024
2017-07-17T07:44:13.073Z,56416
2017-07-17T07:45:13.056Z,82400
2017-07-17T07:46:13.412Z,89216
2017-07-17T07:47:12.741Z,75680
2017-07-17T07:48:12.727Z,76832
2017-07-17T07:49:12.714Z,84928
2017-07-17T07:50:13.021Z,87168
2017-07-17T07:51:12.401Z,83072
2017-07-17T07:52:12.383Z,75328
2017-07-17T07:53:12.383Z,83936
2017-07-17T07:54:13.303Z,93152
2017-07-17T07:55:12.677Z,99424
2017-07-17T07:56:12.988Z,102336
2017-07-17T07:57:12.973Z,84992
2017-07-17T07:58:12.964Z,70656
2017-07-17T07:59:13.262Z,71616
2017-07-17T08:00:13.277Z,73824
2017-07-17T08:01:13.466Z,80672
2017-07-17T08:02:12.623Z,89952
2017-07-17T08:03:12.940Z,90144
2017-07-17T08:04:12.929Z,83200
2017-07-17T08:05:12.927Z,86976
2017-07-17T08:06:12.909Z,90624
2017-07-17T08:07:13.402Z,101024
2017-07-17T08:08:12.893Z,110592
2017-07-17T08:09:12.893Z,107968
2017-07-17T08:10:12.922Z,102368
2017-07-17T08:11:12.776Z,99680
2017-07-17T08:12:12.868Z,101440
2017-07-17T08:13:12.545Z,96384
2017-07-17T08:14:12.849Z,97824
2017-07-17T08:15:12.845Z,105216
2017-07-17T08:16:13.155Z,101152
2017-07-17T08:17:12.842Z,105920
2017-07-17T08:18:13.132Z,112448
2017-07-17T08:19:12.823Z,98400
2017-07-17T08:20:12.816Z,85536
2017-07-17T08:21:12.813Z,86560
2017-07-17T08:22:12.481Z,89952
2017-07-17T08:23:13.108Z,86368
2017-07-17T08:24:13.100Z,83168
2017-07-17T08:25:13.083Z,92928
2017-07-17T08:26:12.776Z,101120
2017-07-17T08:27:12.775Z,89344
2017-07-17T08:28:12.752Z,86624
2017-07-17T08:29:12.751Z,103104
2017-07-17T08:30:12.748Z,106752
2017-07-17T08:31:12.743Z,106400
2017-07-17T08:32:12.728Z,105824
2017-07-17T08:33:12.740Z,104480
2017-07-17T08:34:12.727Z,98432
2017-07-17T08:35:13.067Z,94304
2017-07-17T08:36:12.699Z,102528
2017-07-17T08:37:12.704Z,112256
2017-07-17T08:38:12.703Z,116352
2017-07-17T08:39:13.003Z,112832
2017-07-17T08:40:12.577Z,99904
2017-07-17T08:41:12.986Z,91328
2017-07-17T08:42:12.666Z,95904
2017-07-17T08:43:12.973Z,94880
2017-07-17T08:44:12.651Z,98080
2017-07-17T08:45:12.968Z,99552
2017-07-17T08:46:12.952Z,93120
2017-07-17T08:47:12.637Z,99232
2017-07-17T08:48:12.628Z,104192
2017-07-17T08:49:12.931Z,97824
2017-07-17T08:50:12.634Z,100256
2017-07-17T08:51:12.295Z,111264
2017-07-17T08:52:12.909Z,113888
2017-07-17T08:53:12.283Z,116896
2017-07-17T08:54:12.914Z,121344
2017-07-17T08:55:12.585Z,111552
2017-07-17T08:56:12.589Z,97312
2017-07-17T08:57:12.272Z,118752
2017-07-17T08:58:12.567Z,136768
2017-07-17T08:59:12.869Z,126336
2017-07-17T09:00:12.562Z,101856
2017-07-17T09:01:12.855Z,89280
2017-07-17T09:02:12.539Z,88832
2017-07-17T09:03:12.848Z,114432
2017-07-17T09:04:12.539Z,109440
2017-07-17T09:05:12.841Z,99040
2017-07-17T09:06:12.832Z,93824
2017-07-17T09:07:12.514Z,94464
2017-07-17T09:08:12.195Z,106368
2017-07-17T09:09:12.187Z,125248
2017-07-17T09:10:12.815Z,133888
2017-07-17T09:11:12.492Z,123584
2017-07-17T09:12:12.790Z,103104
2017-07-17T09:13:12.788Z,116896
2017-07-17T09:14:12.162Z,108640
2017-07-17T09:15:12.768Z,102624
2017-07-17T09:16:12.757Z,97056
2017-07-17T09:17:12.148Z,85856
2017-07-17T09:18:12.750Z,85600
2017-07-17T09:19:12.439Z,89600
2017-07-17T09:20:12.341Z,82400
2017-07-17T09:21:12.952Z,77056
2017-07-17T09:22:12.107Z,83776
2017-07-17T09:23:12.099Z,95776
2017-07-17T09:24:12.711Z,118752
2017-07-17T09:25:12.910Z,127232
2017-07-17T09:26:12.401Z,129472
2017-07-17T09:27:12.717Z,115040
2017-07-17T09:28:12.384Z,109472
2017-07-17T09:29:12.684Z,111872
2017-07-17T09:30:12.883Z,111456
2017-07-17T09:31:12.873Z,116352
2017-07-17T09:32:12.663Z,106272
2017-07-17T09:33:12.651Z,103040
2017-07-17T09:34:12.352Z,101056
2017-07-17T09:35:12.666Z,101216
2017-07-17T09:36:12.640Z,99904
2017-07-17T09:37:12.666Z,94880
2017-07-17T09:38:12.314Z,95552
2017-07-17T09:39:12.313Z,94432
2017-07-17T09:40:12.637Z,93664
2017-07-17T09:41:11.676Z,93280
2017-07-17T09:42:11.990Z,94144
2017-07-17T09:43:12.622Z,94144
2017-07-17T09:44:11.668Z,94496
2017-07-17T09:45:12.580Z,96512
2017-07-17T09:46:12.271Z,99776
2017-07-17T09:47:12.574Z,100576
2017-07-17T09:48:12.259Z,102080
2017-07-17T09:49:12.134Z,102464
2017-07-17T09:50:12.245Z,101568
2017-07-17T09:51:12.252Z,97152
2017-07-17T09:52:12.221Z,92800
2017-07-17T09:53:12.541Z,85536
2017-07-17T09:54:12.426Z,86816
2017-07-17T09:55:12.526Z,90528
2017-07-17T09:56:12.517Z,91680
2017-07-17T09:57:12.510Z,94624
2017-07-17T09:58:11.890Z,96480
2017-07-17T09:59:11.872Z,97728
2017-07-17T10:00:12.533Z,98752
2017-07-17T10:01:11.863Z,98496
2017-07-17T10:02:11.866Z,100320
2017-07-17T10:03:12.171Z,101024
2017-07-17T10:04:12.468Z,102112
2017-07-17T10:05:12.150Z,104000
2017-07-17T10:06:12.149Z,104608
2017-07-17T10:07:12.140Z,103552
2017-07-17T10:08:12.436Z,102688
2017-07-17T10:09:12.447Z,103680
2017-07-17T10:10:12.121Z,106912
2017-07-17T10:11:12.106Z,110880
2017-07-17T10:12:12.116Z,112416
2017-07-17T10:13:12.104Z,110464
2017-07-17T10:14:12.107Z,110368
2017-07-17T10:15:11.785Z,111552
2017-07-17T10:16:12.093Z,114016
2017-07-17T10:17:12.080Z,115840
2017-07-17T10:18:12.400Z,115872
2017-07-17T10:19:12.069Z,118208
2017-07-17T10:20:12.059Z,118208
2017-07-17T10:21:12.367Z,119872
2017-07-17T10:22:12.055Z,121696
2017-07-17T10:23:12.038Z,120160
2017-07-17T10:24:12.092Z,122400
2017-07-17T10:25:11.723Z,126144
2017-07-17T10:26:12.025Z,127840
2017-07-17T10:27:12.020Z,128352
2017-07-17T10:28:12.336Z,127680
2017-07-17T10:29:12.017Z,126912
2017-07-17T10:30:12.007Z,125696
2017-07-17T10:31:12.002Z,125728
2017-07-17T10:32:12.001Z,123936
2017-07-17T10:33:11.994Z,125632
2017-07-17T10:34:25.929Z,128896
2017-07-17T10:35:11.970Z,130080
2017-07-17T10:36:11.659Z,129632
2017-07-17T10:37:11.663Z,131424
2017-07-17T10:38:11.656Z,133856
2017-07-17T10:39:12.474Z,134784
2017-07-17T10:40:12.476Z,134112
2017-07-17T10:41:12.264Z,132256
2017-07-17T10:42:11.943Z,131872
2017-07-17T10:43:11.927Z,133568
2017-07-17T10:44:12.251Z,135872
2017-07-17T10:45:12.435Z,133728
2017-07-17T10:46:12.229Z,132128
2017-07-17T10:47:11.913Z,132640
2017-07-17T10:48:12.232Z,134752
2017-07-17T10:49:11.911Z,136544
2017-07-17T10:50:11.911Z,127104
2017-07-17T10:51:12.205Z,131648
2017-07-17T10:52:11.890Z,133632
2017-07-17T10:53:12.206Z,135520
2017-07-17T10:54:11.881Z,133536
2017-07-17T10:55:11.879Z,129600
2017-07-17T10:56:12.188Z,127168
2017-07-17T10:57:11.868Z,123520
2017-07-17T10:58:12.168Z,125600
2017-07-17T10:59:12.160Z,123232
2017-07-17T11:00:11.544Z,118944
2017-07-17T11:01:12.160Z,115712
2017-07-17T11:02:11.521Z,113888
2017-07-17T11:03:12.145Z,115456
2017-07-17T11:04:11.833Z,119584
2017-07-17T11:05:11.536Z,122528
2017-07-17T11:06:12.179Z,124704
2017-07-17T11:07:11.499Z,126464
2017-07-17T11:08:11.199Z,129024
2017-07-17T11:09:12.127Z,131776
2017-07-17T11:10:11.799Z,134016
2017-07-17T11:11:12.105Z,137696
2017-07-17T11:12:11.798Z,131200
2017-07-17T11:13:12.115Z,128864
2017-07-17T11:14:11.160Z,127712
2017-07-17T11:15:11.977Z,116992
2017-07-17T11:16:11.775Z,123520
2017-07-17T11:17:12.092Z,123040
2017-07-17T11:18:26.678Z,126272
2017-07-17T11:19:12.086Z,129440
2017-07-17T11:20:12.289Z,23136
2017-07-17T11:21:12.052Z,126784
2017-07-17T11:22:12.049Z,120992
2017-07-17T11:23:12.050Z,120000
2017-07-17T11:24:11.730Z,119616
2017-07-17T11:25:11.726Z,118432
2017-07-17T11:26:11.418Z,115584
2017-07-17T11:27:11.417Z,112000
2017-07-17T11:28:11.714Z,109632
2017-07-17T11:29:12.020Z,110880
2017-07-17T11:30:11.386Z,113760
2017-07-17T11:31:11.705Z,115456
2017-07-17T11:32:11.698Z,114240
2017-07-17T11:33:11.077Z,109504
2017-07-17T11:34:11.686Z,111072
2017-07-17T11:35:12.005Z,113920
2017-07-17T11:36:11.983Z,116544
2017-07-17T11:37:11.986Z,117408
2017-07-17T11:38:11.348Z,118816
2017-07-17T11:39:11.665Z,118560
2017-07-17T11:40:11.969Z,115776
2017-07-17T11:41:11.967Z,116128
2017-07-17T11:42:11.336Z,115328
2017-07-17T11:43:11.647Z,116096
2017-07-17T11:44:11.963Z,114944
2017-07-17T11:45:11.320Z,113120
2017-07-17T11:56:39.248Z,111104
2017-07-17T11:58:39.225Z,112736
2017-07-17T11:59:39.247Z,113568
2017-07-17T12:00:39.224Z,113856
2017-07-17T12:01:39.206Z,110784
2017-07-17T12:02:39.225Z,107968
2017-07-17T12:03:38.892Z,105440
2017-07-17T12:04:39.186Z,106368
2017-07-17T12:06:39.188Z,122624
2017-07-17T12:07:39.203Z,129408
2017-07-17T12:08:38.884Z,98560
2017-07-17T12:09:39.183Z,168032
2017-07-17T12:10:38.859Z,198080
2017-07-17T12:11:39.182Z,199200
2017-07-17T12:12:39.171Z,180416
2017-07-17T12:13:39.165Z,171680
2017-07-17T12:14:38.850Z,142048
2017-07-17T12:15:39.156Z,120544
2017-07-17T12:16:38.842Z,111552
2017-07-17T12:17:38.837Z,110464
2017-07-17T12:18:38.836Z,113856
2017-07-17T12:19:38.820Z,120256
2017-07-17T12:20:39.134Z,126944
2017-07-17T12:21:39.114Z,129728
2017-07-17T12:22:39.126Z,113568
2017-07-17T12:23:39.117Z,120672
2017-07-17T12:24:39.102Z,120672
2017-07-17T12:25:39.101Z,120448
2017-07-17T12:26:39.108Z,121184
2017-07-17T12:27:38.786Z,126560
2017-07-17T12:28:38.791Z,125056
2017-07-17T12:29:39.114Z,122272
2017-07-17T12:30:39.097Z,125920
2017-07-17T12:31:39.081Z,124384
2017-07-17T12:32:38.774Z,121632
2017-07-17T12:33:39.079Z,120928
2017-07-17T12:34:39.081Z,114592
2017-07-17T12:35:38.744Z,109376
2017-07-17T12:36:38.751Z,113408
2017-07-17T12:37:39.048Z,120320
2017-07-17T12:38:38.734Z,127872
2017-07-17T12:39:38.719Z,132288
2017-07-17T12:40:39.032Z,128832
2017-07-17T12:41:39.034Z,81152
2017-07-17T12:42:38.719Z,112576
2017-07-17T12:43:38.703Z,105568
2017-07-17T12:44:39.012Z,121440
2017-07-17T12:45:39.011Z,119648
2017-07-17T12:46:39.003Z,135840
2017-07-17T12:47:38.991Z,130464
2017-07-17T12:48:38.988Z,127840
2017-07-17T12:49:38.358Z,129888
2017-07-17T12:50:39.004Z,117920
2017-07-17T12:51:38.972Z,128256
2017-07-17T12:52:38.975Z,126496
2017-07-17T12:53:38.650Z,130048
2017-07-17T12:54:38.993Z,128992
2017-07-17T12:55:38.641Z,125952
2017-07-17T12:56:38.956Z,54144
2017-07-17T12:57:38.934Z,130656
2017-07-17T12:58:38.930Z,121568
2017-07-17T12:59:38.930Z,118880
2017-07-17T13:00:38.913Z,126528
2017-07-17T13:01:38.612Z,58560
2017-07-17T13:02:38.924Z,143776
2017-07-17T13:03:38.907Z,130528
2017-07-17T13:04:38.606Z,149760
2017-07-17T13:05:38.906Z,143616
2017-07-17T13:06:38.888Z,132512
2017-07-17T13:07:38.885Z,114624
2017-07-17T13:08:38.888Z,105472
2017-07-17T13:09:38.873Z,103296
2017-07-17T13:10:38.883Z,109792
2017-07-17T13:11:38.864Z,112416
2017-07-17T13:12:38.868Z,119680
2017-07-17T13:13:38.903Z,127936
2017-07-17T13:14:38.533Z,134912
2017-07-17T13:15:38.842Z,150080
2017-07-17T13:16:38.847Z,116448
2017-07-17T13:17:38.842Z,120608
2017-07-17T13:18:38.835Z,82496
2017-07-17T13:19:38.842Z,102976
2017-07-17T13:20:38.825Z,83104
2017-07-17T13:21:38.500Z,97632
2017-07-17T13:22:38.813Z,139456
2017-07-17T13:23:38.807Z,144480
2017-07-17T13:24:38.823Z,129056
2017-07-17T13:25:38.800Z,122784
2017-07-17T13:26:38.793Z,127040
2017-07-17T13:27:38.787Z,131232
2017-07-17T13:28:38.798Z,136864